Time;durP1;ratioP1;P1;durP2;ratioP2;P2;SDS_P1;SDS_P2;PMS_P1;PMS_P2;Temp;Humidity;BMP_temperature;BMP_pressure;BME280_temperature;BME280_humidity;BME280_pressure;Samples;Min_cycle;Max_cycle;Signal;HPM_P1;HPM_P2
2022/09/17 00:00:11;;;;;;;2.63;0.80;;;19.90;61.00;;;;;;10089572;29;20036;-55
2022/09/17 00:05:12;;;;;;;3.60;1.00;;;19.90;60.50;;;;;;10088511;29;20092;-54
2022/09/17 00:10:12;;;;;;;3.00;1.05;;;19.90;60.50;;;;;;10089567;29;20029;-55
2022/09/17 00:15:13;;;;;;;4.13;1.00;;;19.90;60.40;;;;;;10078785;29;20085;-56
2022/09/17 00:20:14;;;;;;;5.80;1.55;;;19.90;60.50;;;;;;10099083;29;20037;-55
2022/09/17 00:25:15;;;;;;;3.00;0.90;;;19.90;60.50;;;;;;10088728;29;20027;-56
2022/09/17 00:30:16;;;;;;;3.28;1.23;;;19.90;60.40;;;;;;10088633;29;20041;-55
2022/09/17 00:35:16;;;;;;;4.80;1.10;;;19.90;60.50;;;;;;10070494;29;20040;-55
2022/09/17 00:40:18;;;;;;;2.60;1.48;;;19.90;60.50;;;;;;10085491;29;20136;-55
2022/09/17 00:45:19;;;;;;;2.55;1.10;;;19.90;60.50;;;;;;10071651;29;20111;-55
2022/09/17 00:50:27;;;;;;;3.47;1.13;;;19.80;60.50;;;;;;10071049;29;20048;-55
2022/09/17 00:55:34;;;;;;;3.35;1.02;;;19.80;60.50;;;;;;10071485;29;20608;-56
2022/09/17 01:00:35;;;;;;;4.35;1.17;;;19.80;60.60;;;;;;10071057;29;20049;-55
2022/09/17 01:06:16;;;;;;;1.90;0.82;;;19.80;60.50;;;;;;10070454;29;20025;-55
2022/09/17 01:11:35;;;;;;;5.45;1.50;;;19.80;60.50;;;;;;10087246;29;20497;-55
2022/09/17 01:17:18;;;;;;;2.47;0.95;;;19.80;60.60;;;;;;10060154;29;20044;-56
2022/09/17 01:23:13;;;;;;;2.45;1.17;;;19.80;60.70;;;;;;10081919;29;20037;-54
2022/09/17 01:28:41;;;;;;;3.05;0.80;;;19.80;60.70;;;;;;10072195;29;20456;-56
2022/09/17 01:34:18;;;;;;;3.50;1.00;;;19.80;60.60;;;;;;10071990;29;20025;-55
2022/09/17 01:39:47;;;;;;;1.95;0.80;;;19.80;60.70;;;;;;10061305;29;20091;-55
2022/09/17 01:45:21;;;;;;;2.70;1.00;;;19.80;60.70;;;;;;10072598;29;20062;-55
2022/09/17 01:50:37;;;;;;;6.13;2.15;;;19.80;60.70;;;;;;10070517;29;20120;-55
2022/09/17 01:55:41;;;;;;;4.50;1.08;;;19.80;60.70;;;;;;10070896;29;20132;-56
2022/09/17 02:00:49;;;;;;;4.00;1.02;;;19.80;60.70;;;;;;10070036;29;20588;-56
2022/09/17 02:06:19;;;;;;;1.88;0.75;;;19.70;60.60;;;;;;10086128;29;20449;-55
2022/09/17 02:11:19;;;;;;;;;;;19.80;60.70;;;;;;10070239;29;20036;-54
2022/09/17 02:16:29;;;;;;;2.70;0.95;;;19.80;60.90;;;;;;10069100;29;20660;-56
2022/09/17 02:21:44;;;;;;;4.28;1.20;;;19.70;60.60;;;;;;10078701;29;20052;-55
2022/09/17 02:27:00;;;;;;;3.78;1.10;;;19.70;60.70;;;;;;10069567;29;20820;-55
2022/09/17 02:32:01;;;;;;;4.13;1.67;;;19.70;60.70;;;;;;10085895;29;20789;-54
2022/09/17 02:37:03;;;;;;;2.80;1.13;;;19.70;60.60;;;;;;10085824;29;20037;-56
2022/09/17 02:42:32;;;;;;;4.00;1.33;;;19.70;60.80;;;;;;10075730;29;20401;-55
2022/09/17 02:48:06;;;;;;;2.28;0.70;;;19.70;60.70;;;;;;10077302;29;20489;-56
2022/09/17 02:53:55;;;;;;;4.93;0.93;;;19.70;60.70;;;;;;10090688;29;20787;-56
2022/09/17 02:59:29;;;;;;;3.08;0.85;;;19.70;60.70;;;;;;10076275;29;20493;-55
2022/09/17 03:04:31;;;;;;;2.95;0.70;;;19.70;60.70;;;;;;10091796;29;20531;-55
2022/09/17 03:09:32;;;;;;;2.75;1.38;;;19.70;60.80;;;;;;10074923;29;20466;-56
2022/09/17 03:14:33;;;;;;;2.08;0.98;;;19.70;60.80;;;;;;10074704;29;20041;-56
2022/09/17 03:19:34;;;;;;;4.15;0.90;;;19.70;60.70;;;;;;10099549;29;20100;-56
2022/09/17 03:24:34;;;;;;;2.38;0.77;;;19.60;60.70;;;;;;10089785;29;20642;-56
2022/09/17 03:29:35;;;;;;;3.70;0.90;;;19.60;60.60;;;;;;10073964;29;20119;-55
2022/09/17 03:34:36;;;;;;;3.13;1.10;;;19.60;60.60;;;;;;10073956;29;20060;-55
2022/09/17 03:39:37;;;;;;;4.40;1.23;;;19.60;60.70;;;;;;10090031;29;20123;-56
2022/09/17 03:44:37;;;;;;;2.53;0.93;;;19.60;60.70;;;;;;10073666;29;20547;-55
2022/09/17 03:49:38;;;;;;;1.85;0.70;;;19.60;60.60;;;;;;10089068;29;20117;-54
2022/09/17 03:54:39;;;;;;;2.15;0.70;;;19.60;60.70;;;;;;10089815;29;20661;-55
2022/09/17 03:59:39;;;;;;;2.20;0.60;;;19.60;60.60;;;;;;10089814;29;20041;-55
2022/09/17 04:04:40;;;;;;;1.95;0.60;;;19.60;60.70;;;;;;10073107;29;20069;-55
2022/09/17 04:09:41;;;;;;;3.58;0.80;;;19.60;60.50;;;;;;10072705;29;20120;-55
2022/09/17 04:14:42;;;;;;;4.10;1.35;;;19.60;60.50;;;;;;10072378;29;20457;-56
2022/09/17 04:19:43;;;;;;;2.42;1.00;;;19.50;60.40;;;;;;10098005;29;20102;-56
2022/09/17 04:24:44;;;;;;;3.38;1.13;;;19.50;60.30;;;;;;10087365;29;20478;-55
2022/09/17 04:29:45;;;;;;;3.00;1.35;;;19.50;60.70;;;;;;10086801;29;20037;-55
2022/09/17 04:34:45;;;;;;;6.65;3.15;;;19.50;60.90;;;;;;10086617;29;20509;-56
2022/09/17 04:39:46;;;;;;;5.82;4.50;;;19.50;61.00;;;;;;10098652;29;20044;-56
2022/09/17 04:44:47;;;;;;;11.75;10.65;;;19.50;61.30;;;;;;10070612;29;20053;-55
2022/09/17 04:49:47;;;;;;;13.88;12.82;;;19.50;61.70;;;;;;10087468;29;20089;-54
2022/09/17 04:54:48;;;;;;;22.38;20.77;;;19.50;61.70;;;;;;10086879;29;20612;-55
2022/09/17 04:59:48;;;;;;;14.65;13.38;;;19.60;62.00;;;;;;10087068;29;20169;-55
2022/09/17 05:04:49;;;;;;;13.32;12.00;;;19.60;61.90;;;;;;10085980;29;20064;-56
2022/09/17 05:09:50;;;;;;;11.93;10.93;;;19.60;61.50;;;;;;10083016;29;20141;-56
2022/09/17 05:14:51;;;;;;;10.65;9.75;;;19.50;61.40;;;;;;10084173;29;20040;-56
2022/09/17 05:19:52;;;;;;;10.38;9.40;;;19.50;61.10;;;;;;10096034;29;20033;-55
2022/09/17 05:24:52;;;;;;;9.25;8.45;;;19.50;61.10;;;;;;10086860;29;20044;-56
2022/09/17 05:29:53;;;;;;;9.82;8.95;;;19.40;61.10;;;;;;10090916;29;20120;-55
2022/09/17 05:34:55;;;;;;;13.00;9.52;;;19.40;61.00;;;;;;10099182;29;20053;-56
2022/09/17 05:39:55;;;;;;;12.60;8.27;;;19.50;61.20;;;;;;10086328;29;20041;-56
2022/09/17 05:44:56;;;;;;;13.35;8.23;;;19.50;61.80;;;;;;10067779;29;20098;-54
2022/09/17 05:49:56;;;;;;;15.68;8.35;;;19.60;61.40;;;;;;10069119;29;20056;-55
2022/09/17 05:54:57;;;;;;;13.18;7.50;;;19.60;62.00;;;;;;10084195;29;20532;-56
2022/09/17 05:59:58;;;;;;;10.88;7.32;;;19.60;62.20;;;;;;10069626;29;20136;-55
2022/09/17 06:05:00;;;;;;;18.40;8.00;;;19.60;62.20;;;;;;10086304;29;20132;-54
2022/09/17 06:10:03;;;;;;;21.65;8.40;;;19.60;62.00;;;;;;10086497;29;20109;-55
2022/09/17 06:15:04;;;;;;;14.02;6.18;;;19.60;62.60;;;;;;10090630;29;20033;-54
2022/09/17 06:20:05;;;;;;;27.00;7.55;;;19.60;62.40;;;;;;10095149;29;20136;-54
2022/09/17 06:25:07;;;;;;;21.27;5.68;;;19.60;62.50;;;;;;10093574;29;20044;-55
2022/09/17 06:30:08;;;;;;;31.65;7.75;;;19.60;62.30;;;;;;10092735;29;20045;-54
2022/09/17 06:35:09;;;;;;;32.20;7.47;;;19.60;62.50;;;;;;10092080;29;20033;-53
2022/09/17 06:40:10;;;;;;;21.88;5.43;;;19.60;62.90;;;;;;10092609;29;20056;-55
2022/09/17 06:45:10;;;;;;;24.63;5.47;;;19.60;62.50;;;;;;10075911;29;20037;-55
2022/09/17 06:50:11;;;;;;;36.33;7.28;;;19.60;62.40;;;;;;10075215;29;20029;-56
2022/09/17 06:55:12;;;;;;;50.45;9.10;;;19.60;62.60;;;;;;10075079;29;20052;-54
2022/09/17 07:00:13;;;;;;;43.78;8.27;;;19.60;62.50;;;;;;10090248;29;20044;-55
2022/09/17 07:05:14;;;;;;;23.88;5.22;;;19.50;62.50;;;;;;10074970;29;20033;-54
2022/09/17 07:10:15;;;;;;;52.83;7.45;;;19.50;62.70;;;;;;10091007;29;20044;-56
2022/09/17 07:15:15;;;;;;;29.92;5.28;;;19.50;62.20;;;;;;10090550;29;20037;-56
2022/09/17 07:20:16;;;;;;;19.73;6.10;;;19.50;62.20;;;;;;10096460;29;20041;-56
2022/09/17 07:25:17;;;;;;;18.15;4.38;;;19.50;62.20;;;;;;10069039;29;20489;-56
2022/09/17 07:30:19;;;;;;;15.20;4.75;;;19.40;62.00;;;;;;10086250;29;20086;-57
2022/09/17 07:35:20;;;;;;;10.77;2.75;;;19.40;61.90;;;;;;10068725;29;20041;-56
2022/09/17 07:40:21;;;;;;;9.70;2.95;;;19.40;61.90;;;;;;10068722;29;20412;-57
2022/09/17 07:45:21;;;;;;;10.23;2.90;;;19.40;61.80;;;;;;10068687;29;20116;-57
2022/09/17 07:50:22;;;;;;;11.90;3.90;;;19.40;61.60;;;;;;10071103;29;20073;-57
2022/09/17 07:55:23;;;;;;;12.90;3.67;;;19.40;61.50;;;;;;10085982;29;20068;-56
2022/09/17 08:00:24;;;;;;;10.98;2.65;;;19.40;61.50;;;;;;10087424;29;20253;-56
2022/09/17 08:05:25;;;;;;;13.32;3.70;;;19.40;61.50;;;;;;10087322;29;20121;-56
2022/09/17 08:10:26;;;;;;;12.63;2.35;;;19.40;61.40;;;;;;10087171;29;20041;-57
2022/09/17 08:15:27;;;;;;;12.63;2.72;;;19.40;61.30;;;;;;10070145;29;20029;-56
2022/09/17 08:20:28;;;;;;;9.80;3.38;;;19.40;61.20;;;;;;10095552;29;20029;-57
2022/09/17 08:25:29;;;;;;;11.45;2.30;;;19.40;61.20;;;;;;10085277;29;20671;-57
2022/09/17 08:30:30;;;;;;;7.80;2.33;;;19.40;61.10;;;;;;10069752;29;20112;-57
2022/09/17 08:35:31;;;;;;;9.07;1.73;;;19.40;61.10;;;;;;10068678;29;20036;-56
2022/09/17 08:40:40;;;;;;;8.68;3.10;;;19.40;61.00;;;;;;10085714;29;20437;-57
2022/09/17 08:45:41;;;;;;;7.32;1.63;;;19.40;61.00;;;;;;10069300;29;20413;-57
2022/09/17 08:50:41;;;;;;;6.72;1.40;;;19.40;61.00;;;;;;10068650;29;20040;-57
2022/09/17 08:55:49;;;;;;;6.90;1.52;;;19.40;61.00;;;;;;10085445;29;20053;-57
2022/09/17 09:00:57;;;;;;;5.70;2.05;;;19.40;61.00;;;;;;10069137;29;20044;-57
2022/09/17 09:06:00;;;;;;;6.50;1.30;;;19.40;61.10;;;;;;10068715;29;20389;-57
2022/09/17 09:11:04;;;;;;;4.93;1.65;;;19.40;61.10;;;;;;10067821;29;20049;-57
2022/09/17 09:16:17;;;;;;;4.40;1.10;;;19.40;61.10;;;;;;10084738;29;20279;-56
2022/09/17 09:21:27;;;;;;;4.45;1.17;;;19.50;61.10;;;;;;10077790;29;20127;-56
2022/09/17 09:26:50;;;;;;;7.50;1.40;;;19.50;60.90;;;;;;10084588;29;20029;-57
2022/09/17 09:32:08;;;;;;;5.85;1.27;;;19.50;61.40;;;;;;10068292;29;20041;-57
2022/09/17 09:37:32;;;;;;;3.78;1.17;;;19.50;60.80;;;;;;10067613;29;20025;-57
2022/09/17 09:42:36;;;;;;;5.20;1.67;;;19.60;60.70;;;;;;10071949;29;20101;-57
2022/09/17 09:48:14;;;;;;;6.20;1.23;;;19.60;60.60;;;;;;10068560;29;20033;-56
2022/09/17 09:53:38;;;;;;;2.88;1.05;;;19.60;60.50;;;;;;10078154;29;20116;-57
2022/09/17 09:58:40;;;;;;;5.20;1.35;;;19.60;60.70;;;;;;10092361;29;20524;-59
2022/09/17 10:03:44;;;;;;;6.18;1.20;;;19.60;60.60;;;;;;10102437;29;20064;-57
2022/09/17 10:08:54;;;;;;;4.88;1.30;;;19.70;60.40;;;;;;10076716;29;20032;-55
2022/09/17 10:14:24;;;;;;;5.32;1.33;;;19.70;60.60;;;;;;10090665;29;20037;-56
2022/09/17 10:19:25;;;;;;;11.35;1.67;;;19.70;60.70;;;;;;10084064;29;20030;-55
2022/09/17 10:24:32;;;;;;;9.32;1.05;;;19.70;60.90;;;;;;10074204;29;20564;-56
2022/09/17 10:29:33;;;;;;;6.47;0.90;;;19.70;61.00;;;;;;10091178;29;20029;-55
2022/09/17 10:34:34;;;;;;;5.35;1.45;;;19.70;61.20;;;;;;10100600;29;20076;-55
2022/09/17 10:39:43;;;;;;;7.85;1.10;;;19.70;61.40;;;;;;10102496;29;20040;-55
2022/09/17 10:44:56;;;;;;;10.70;1.87;;;19.70;61.70;;;;;;10074592;29;20548;-56
2022/09/17 10:50:18;;;;;;;6.90;1.70;;;19.60;61.90;;;;;;10074567;29;20029;-56
2022/09/17 10:55:32;;;;;;;12.65;3.28;;;19.70;62.30;;;;;;10073019;29;20044;-55
2022/09/17 11:01:00;;;;;;;23.88;3.38;;;19.70;62.40;;;;;;10097412;29;20045;-55
2022/09/17 11:06:19;;;;;;;40.15;4.70;;;19.80;62.60;;;;;;10099433;29;20452;-55
2022/09/17 11:11:40;;;;;;;30.67;4.13;;;19.80;62.60;;;;;;10090312;29;20806;-55
2022/09/17 11:17:20;;;;;;;20.77;3.83;;;19.80;62.80;;;;;;10088647;29;20093;-55
2022/09/17 11:22:56;;;;;;;17.58;3.38;;;19.80;62.50;;;;;;10050177;29;20068;-56
2022/09/17 11:28:16;;;;;;;26.35;3.95;;;19.90;62.20;;;;;;10088925;29;20123;-56
2022/09/17 11:33:54;;;;;;;13.20;2.40;;;19.90;61.60;;;;;;10090312;29;20120;-56
2022/09/17 11:39:00;;;;;;;18.38;3.65;;;19.90;61.40;;;;;;10088547;29;20060;-56
2022/09/17 11:44:34;;;;;;;21.55;4.15;;;19.90;61.10;;;;;;10090110;29;20035;-56
2022/09/17 11:49:57;;;;;;;17.42;4.45;;;19.90;60.70;;;;;;10073330;29;20052;-56
2022/09/17 11:55:38;;;;;;;30.27;4.63;;;20.00;60.30;;;;;;10072664;29;20060;-56
2022/09/17 12:00:49;;;;;;;26.98;4.05;;;20.00;59.90;;;;;;10073593;29;20037;-54
2022/09/17 12:06:02;;;;;;;30.02;4.25;;;20.00;59.90;;;;;;10072389;29;20037;-53
2022/09/17 12:11:19;;;;;;;18.30;3.45;;;19.90;59.80;;;;;;10071519;29;20025;-54
2022/09/17 12:16:25;;;;;;;19.40;4.57;;;20.00;59.90;;;;;;10087930;29;20045;-55
2022/09/17 12:21:47;;;;;;;16.85;3.90;;;19.90;59.70;;;;;;10096075;29;20184;-55
2022/09/17 12:27:12;;;;;;;15.73;5.32;;;19.90;60.00;;;;;;10073260;29;20120;-54
2022/09/17 12:32:56;;;;;;;12.95;3.45;;;19.90;60.00;;;;;;10087347;29;20029;-55
2022/09/17 12:38:46;;;;;;;17.00;4.07;;;19.90;59.80;;;;;;10087981;29;20101;-55
2022/09/17 12:44:14;;;;;;;11.25;2.65;;;19.90;59.80;;;;;;10073125;29;20507;-55
2022/09/17 12:49:32;;;;;;;14.48;4.07;;;19.80;60.70;;;;;;10087460;29;20048;-54
2022/09/17 12:55:10;;;;;;;12.05;4.18;;;19.80;60.30;;;;;;10087581;29;20057;-55
2022/09/17 13:00:13;;;;;;;11.90;3.90;;;19.80;60.40;;;;;;10087510;29;20561;-55
2022/09/17 13:05:49;;;;;;;9.50;2.33;;;19.70;60.50;;;;;;10086461;29;20693;-54
2022/09/17 13:11:36;;;;;;;10.20;2.60;;;19.70;60.50;;;;;;10087124;29;20029;-54
2022/09/17 13:16:58;;;;;;;10.40;3.08;;;19.70;60.40;;;;;;10069956;29;20044;-55
2022/09/17 13:22:19;;;;;;;6.95;2.08;;;19.70;60.40;;;;;;10093424;29;20049;-54
2022/09/17 13:27:25;;;;;;;12.50;2.80;;;19.80;60.40;;;;;;10054918;29;20116;-54
2022/09/17 13:32:32;;;;;;;10.13;3.28;;;19.80;60.50;;;;;;10070414;29;20033;-53
2022/09/17 13:37:53;;;;;;;11.68;3.63;;;19.70;60.50;;;;;;10086783;29;20029;-53
2022/09/17 13:42:57;;;;;;;9.50;2.58;;;19.70;60.60;;;;;;10087155;29;20141;-54
2022/09/17 13:48:10;;;;;;;11.93;2.75;;;19.70;60.70;;;;;;10070381;29;20060;-54
2022/09/17 13:53:13;;;;;;;9.48;2.92;;;19.70;60.70;;;;;;10070272;29;20040;-52
2022/09/17 13:58:20;;;;;;;11.55;3.05;;;19.70;60.80;;;;;;10086479;29;20083;-54
2022/09/17 14:03:30;;;;;;;10.52;3.03;;;19.70;60.80;;;;;;10086433;29;20041;-54
2022/09/17 14:08:46;;;;;;;22.48;3.55;;;19.70;60.80;;;;;;10096234;29;20041;-52
2022/09/17 14:13:48;;;;;;;23.25;3.80;;;19.70;61.10;;;;;;10085951;29;20477;-55
2022/09/17 14:19:20;;;;;;;24.08;5.40;;;19.70;61.50;;;;;;10095270;29;20108;-56
2022/09/17 14:24:43;;;;;;;28.58;4.55;;;19.70;61.60;;;;;;10073768;29;20359;-54
2022/09/17 14:30:22;;;;;;;28.77;5.10;;;19.70;62.10;;;;;;10045826;29;20071;-53
2022/09/17 14:35:49;;;;;;;27.05;6.68;;;19.70;62.00;;;;;;10095319;29;20025;-54
2022/09/17 14:41:03;;;;;;;38.13;6.43;;;19.70;62.10;;;;;;10058699;29;20782;-53
2022/09/17 14:46:08;;;;;;;37.63;6.38;;;19.80;62.20;;;;;;10073970;29;20033;-53
2022/09/17 14:51:20;;;;;;;28.35;6.05;;;19.70;61.90;;;;;;10072166;29;20052;-54
2022/09/17 14:56:22;;;;;;;23.25;5.05;;;19.70;62.20;;;;;;10090036;29;20053;-54
2022/09/17 15:01:29;;;;;;;27.15;5.10;;;19.80;62.90;;;;;;10072945;29;20048;-57
2022/09/17 15:06:29;;;;;;;30.80;5.50;;;19.90;62.60;;;;;;10072638;29;20116;-59
2022/09/17 15:11:39;;;;;;;19.63;4.50;;;20.00;61.90;;;;;;10071821;29;20060;-57
2022/09/17 15:16:53;;;;;;;;;;;20.00;61.20;;;;;;10073308;29;20037;-55
2022/09/17 15:21:55;;;;;;;18.65;4.07;;;19.90;61.60;;;;;;10081351;29;20372;-57
2022/09/17 15:27:00;;;;;;;21.02;4.40;;;20.00;60.90;;;;;;10072906;29;20021;-57
2022/09/17 15:32:05;;;;;;;22.95;5.78;;;20.20;60.80;;;;;;10071829;29;20320;-58
2022/09/17 15:37:24;;;;;;;27.60;6.00;;;20.20;60.90;;;;;;10072065;29;20033;-58
2022/09/17 15:42:28;;;;;;;30.77;4.63;;;20.30;61.80;;;;;;10076211;29;20072;-58
2022/09/17 15:47:43;;;;;;;32.88;6.53;;;20.30;62.20;;;;;;10070694;29;20037;-56
2022/09/17 15:52:45;;;;;;;27.70;4.88;;;20.20;62.70;;;;;;10071011;29;20068;-57
2022/09/17 15:57:45;;;;;;;22.48;5.30;;;20.20;62.80;;;;;;10070775;29;20052;-55
2022/09/17 16:02:46;;;;;;;28.08;4.10;;;20.30;63.10;;;;;;10070673;29;20324;-57
2022/09/17 16:07:47;;;;;;;37.25;6.05;;;20.50;63.50;;;;;;10070385;29;20481;-56
2022/09/17 16:12:51;;;;;;;31.48;5.55;;;20.50;63.10;;;;;;10070599;29;20045;-56
2022/09/17 16:17:51;;;;;;;20.30;3.60;;;20.50;63.30;;;;;;10086979;29;20029;-54
2022/09/17 16:22:53;;;;;;;26.80;5.18;;;20.50;64.10;;;;;;10087038;29;20064;-57
2022/09/17 16:28:04;;;;;;;17.70;3.30;;;20.50;63.50;;;;;;10077095;29;20041;-55
2022/09/17 16:33:05;;;;;;;22.33;4.13;;;20.40;63.70;;;;;;10095943;29;20074;-57
2022/09/17 16:38:07;;;;;;;25.05;4.28;;;20.40;64.00;;;;;;10069784;29;20112;-54
2022/09/17 16:43:08;;;;;;;41.30;6.53;;;20.30;64.00;;;;;;10072735;29;20041;-54
2022/09/17 16:48:09;;;;;;;31.65;4.70;;;20.20;64.20;;;;;;10086285;29;20508;-56
2022/09/17 16:53:10;;;;;;;23.77;5.65;;;20.30;64.40;;;;;;10085824;29;20275;-52
2022/09/17 16:58:10;;;;;;;42.40;7.50;;;20.30;64.30;;;;;;10085303;29;20409;-56
2022/09/17 17:03:13;;;;;;;41.55;7.68;;;20.30;64.20;;;;;;10053295;29;20466;-56
2022/09/17 17:08:13;;;;;;;32.65;5.97;;;20.20;64.40;;;;;;10068683;29;20040;-56
2022/09/17 17:13:14;;;;;;;46.92;6.47;;;20.10;64.70;;;;;;10058762;29;20124;-56
2022/09/17 17:18:18;;;;;;;34.25;5.57;;;20.10;65.00;;;;;;10076856;29;20101;-56
2022/09/17 17:23:19;;;;;;;33.45;5.70;;;20.00;65.20;;;;;;10068200;29;20044;-55
2022/09/17 17:28:19;;;;;;;32.25;6.55;;;20.00;65.00;;;;;;10067966;29;20132;-57
2022/09/17 17:33:20;;;;;;;22.60;4.40;;;19.90;65.00;;;;;;10084681;29;20120;-56
2022/09/17 17:38:20;;;;;;;27.05;5.32;;;19.90;65.00;;;;;;10067613;29;20354;-56
2022/09/17 17:43:21;;;;;;;22.95;5.40;;;19.90;64.60;;;;;;10084034;29;20048;-56
2022/09/17 17:48:22;;;;;;;16.23;5.05;;;19.90;64.50;;;;;;10084509;29;20084;-57
2022/09/17 17:53:23;;;;;;;18.88;3.78;;;19.90;64.40;;;;;;10084173;29;20072;-57
2022/09/17 17:58:24;;;;;;;21.92;5.15;;;19.90;64.40;;;;;;10064954;29;20064;-57
2022/09/17 18:03:25;;;;;;;19.67;3.53;;;19.90;64.20;;;;;;10081894;29;20052;-57
2022/09/17 18:08:26;;;;;;;34.22;4.53;;;19.90;64.50;;;;;;10069789;29;20021;-57
2022/09/17 18:13:29;;;;;;;16.95;3.08;;;19.80;64.10;;;;;;10074176;29;20571;-57
2022/09/17 18:18:42;;;;;;;16.00;3.92;;;19.80;64.20;;;;;;10082718;29;20061;-57
2022/09/17 18:23:43;;;;;;;18.40;5.35;;;19.80;64.30;;;;;;10087942;29;20073;-57
2022/09/17 18:28:45;;;;;;;13.63;4.53;;;19.80;64.40;;;;;;10085012;29;20679;-56
2022/09/17 18:33:46;;;;;;;15.70;3.65;;;19.90;65.50;;;;;;10072436;29;20035;-57
2022/09/17 18:38:47;;;;;;;14.55;4.28;;;19.90;65.30;;;;;;10088296;29;20508;-57
2022/09/17 18:43:48;;;;;;;11.38;3.03;;;19.90;64.30;;;;;;10087438;29;20124;-57
2022/09/17 18:48:53;;;;;;;11.77;3.42;;;19.90;64.40;;;;;;10087131;29;20030;-56
2022/09/17 18:53:54;;;;;;;8.57;3.45;;;19.80;64.40;;;;;;10071500;29;20072;-57
2022/09/17 18:58:57;;;;;;;10.82;2.45;;;19.80;64.30;;;;;;10086670;29;20064;-56
2022/09/17 19:03:58;;;;;;;15.57;3.38;;;19.80;64.40;;;;;;10083193;29;20064;-57
2022/09/17 19:09:01;;;;;;;14.93;3.75;;;19.80;64.30;;;;;;10070631;29;20305;-57
2022/09/17 19:14:02;;;;;;;9.50;2.88;;;19.80;64.40;;;;;;10070649;29;20096;-57
2022/09/17 19:19:03;;;;;;;6.20;1.80;;;19.80;64.30;;;;;;10094449;29;20593;-57
2022/09/17 19:24:04;;;;;;;15.05;3.30;;;19.80;64.30;;;;;;10086679;29;20497;-57
2022/09/17 19:29:05;;;;;;;10.15;2.60;;;19.80;64.10;;;;;;10086648;29;20029;-57
2022/09/17 19:34:06;;;;;;;7.72;2.03;;;19.80;64.10;;;;;;10072080;29;20109;-59
2022/09/17 19:39:07;;;;;;;10.18;2.40;;;19.80;64.10;;;;;;10072283;29;20040;-58
2022/09/17 19:44:08;;;;;;;7.88;1.90;;;19.70;63.80;;;;;;10073326;29;20112;-58
2022/09/17 19:49:09;;;;;;;5.50;1.25;;;19.70;64.10;;;;;;10072558;29;20057;-58
2022/09/17 19:54:10;;;;;;;6.75;2.35;;;19.70;64.00;;;;;;10087542;29;20029;-57
2022/09/17 19:59:11;;;;;;;4.28;1.27;;;19.70;64.00;;;;;;10070828;29;20038;-58
2022/09/17 20:04:11;;;;;;;3.60;1.30;;;19.70;63.70;;;;;;10088454;29;20507;-58
2022/09/17 20:09:12;;;;;;;4.32;1.38;;;19.70;63.60;;;;;;10057411;29;20473;-58
2022/09/17 20:14:13;;;;;;;5.55;1.25;;;19.60;63.60;;;;;;10072530;29;20033;-58
2022/09/17 20:19:15;;;;;;;3.75;1.77;;;19.60;63.80;;;;;;10096998;29;20025;-57
2022/09/17 20:24:16;;;;;;;3.58;1.42;;;19.70;63.70;;;;;;10072419;29;20044;-58
2022/09/17 20:29:17;;;;;;;5.43;1.70;;;19.60;63.50;;;;;;10088849;29;20024;-57
2022/09/17 20:34:17;;;;;;;3.78;1.38;;;19.60;63.40;;;;;;10071163;29;20113;-57
2022/09/17 20:39:18;;;;;;;4.90;1.02;;;19.60;63.30;;;;;;10071307;29;20052;-58
2022/09/17 20:44:19;;;;;;;3.83;1.20;;;19.60;63.20;;;;;;10088106;29;20108;-57
2022/09/17 20:49:20;;;;;;;3.28;1.20;;;19.60;63.20;;;;;;10088086;29;20021;-58
2022/09/17 20:54:21;;;;;;;3.60;1.77;;;19.60;63.20;;;;;;10087802;29;20401;-58
2022/09/17 20:59:26;;;;;;;4.10;1.30;;;19.60;63.00;;;;;;10088075;29;20041;-58
2022/09/17 21:04:26;;;;;;;4.13;1.30;;;19.60;63.10;;;;;;10071625;29;20029;-57
2022/09/17 21:09:27;;;;;;;4.47;1.20;;;19.60;63.00;;;;;;10070984;29;20057;-58
2022/09/17 21:14:28;;;;;;;3.38;0.80;;;19.60;63.00;;;;;;10087499;29;20065;-58
2022/09/17 21:19:28;;;;;;;4.65;1.23;;;19.60;63.00;;;;;;10096417;29;20120;-58
2022/09/17 21:24:29;;;;;;;3.15;0.95;;;19.60;62.90;;;;;;10085789;29;20029;-57
2022/09/17 21:29:30;;;;;;;3.42;1.17;;;19.60;62.90;;;;;;10087252;29;20068;-57
2022/09/17 21:34:30;;;;;;;2.22;1.05;;;19.50;62.80;;;;;;10070438;29;20072;-57
2022/09/17 21:39:33;;;;;;;3.10;1.05;;;19.60;62.80;;;;;;10099292;29;20124;-58
2022/09/17 21:44:34;;;;;;;2.50;1.20;;;19.50;62.80;;;;;;10091174;29;20096;-58
2022/09/17 21:49:35;;;;;;;3.70;0.65;;;19.50;62.70;;;;;;10062585;29;20033;-57
2022/09/17 21:54:36;;;;;;;4.00;0.88;;;19.50;62.80;;;;;;10094729;29;20080;-58
2022/09/17 21:59:36;;;;;;;4.38;1.15;;;19.50;62.70;;;;;;10094275;29;20560;-58
2022/09/17 22:04:37;;;;;;;2.13;0.82;;;19.50;62.70;;;;;;10093801;29;20092;-58
2022/09/17 22:09:38;;;;;;;2.45;0.77;;;19.50;62.60;;;;;;10093899;29;20509;-58
2022/09/17 22:14:38;;;;;;;1.77;0.70;;;19.50;62.60;;;;;;10093484;29;20108;-58
2022/09/17 22:19:39;;;;;;;3.58;1.13;;;19.50;63.20;;;;;;10103164;29;20116;-58
2022/09/17 22:24:43;;;;;;;4.63;1.38;;;19.50;62.60;;;;;;10075967;29;20057;-58
2022/09/17 22:29:43;;;;;;;3.25;1.10;;;19.50;62.60;;;;;;10091474;29;20112;-58
2022/09/17 22:34:44;;;;;;;1.50;0.68;;;19.50;62.60;;;;;;10093188;29;20065;-58
2022/09/17 22:39:45;;;;;;;3.30;0.90;;;19.50;62.60;;;;;;10076141;29;20124;-57
2022/09/17 22:44:45;;;;;;;2.40;0.95;;;19.50;62.60;;;;;;10091760;29;20021;-58
2022/09/17 22:49:46;;;;;;;2.90;0.90;;;19.40;62.80;;;;;;10075890;29;20056;-57
2022/09/17 22:54:47;;;;;;;3.90;1.02;;;19.40;62.60;;;;;;10074661;29;20746;-57
2022/09/17 22:59:47;;;;;;;2.65;1.00;;;19.40;62.50;;;;;;10092539;29;20096;-57
2022/09/17 23:04:49;;;;;;;2.72;0.98;;;19.40;62.50;;;;;;10092190;29;20109;-58
2022/09/17 23:09:50;;;;;;;3.47;1.05;;;19.40;62.50;;;;;;10091913;29;20093;-58
2022/09/17 23:14:51;;;;;;;3.42;1.35;;;19.50;62.60;;;;;;10074948;29;20069;-57
2022/09/17 23:19:52;;;;;;;2.10;0.80;;;19.40;62.50;;;;;;10101324;29;20617;-58
2022/09/17 23:24:52;;;;;;;3.00;0.93;;;19.40;62.50;;;;;;10091131;29;20033;-57
2022/09/17 23:29:53;;;;;;;3.58;0.95;;;19.40;62.50;;;;;;10091007;29;20708;-58
2022/09/17 23:34:54;;;;;;;3.58;1.20;;;19.40;62.50;;;;;;10090654;29;20064;-58
2022/09/17 23:39:55;;;;;;;3.45;1.00;;;19.40;62.60;;;;;;10089424;29;20132;-58
2022/09/17 23:44:56;;;;;;;2.78;1.17;;;19.40;62.50;;;;;;10090927;29;20060;-57
2022/09/17 23:49:56;;;;;;;2.55;0.80;;;19.40;62.60;;;;;;10090575;29;20079;-58
2022/09/17 23:54:57;;;;;;;3.63;0.90;;;19.40;62.50;;;;;;10090197;29;20053;-58
2022/09/17 23:59:58;;;;;;;3.15;0.75;;;19.40;62.50;;;;;;10073335;29;20157;-58
